createdAt,value
2022-09-24T00:00:49.881Z,81.71
2022-09-24T00:06:28.575Z,81.78
2022-09-24T00:12:07.376Z,81.52
2022-09-24T00:14:56.250Z,81.47
2022-09-24T00:20:31.791Z,81.48
2022-09-24T00:26:28.185Z,81.39
2022-09-24T00:29:18.815Z,81.45
2022-09-24T00:34:55.801Z,81.78
2022-09-24T00:37:44.767Z,82.00
2022-09-24T00:40:36.876Z,82.55
2022-09-24T00:46:19.309Z,90.68
2022-09-24T00:49:10.598Z,93.25
2022-09-24T00:52:00.113Z,94.13
2022-09-24T00:54:51.538Z,94.83
2022-09-24T01:00:28.010Z,95.45
2022-09-24T01:03:18.623Z,94.50
2022-09-24T01:06:08.148Z,95.05
2022-09-24T01:11:46.493Z,96.64
2022-09-24T01:17:36.850Z,97.66
2022-09-24T01:23:48.757Z,96.12
2022-09-24T01:26:56.937Z,97.91
2022-09-24T01:32:46.639Z,98.42
2022-09-24T01:38:24.597Z,99.95
2022-09-24T01:41:15.360Z,99.02
2022-09-24T01:44:06.614Z,98.53
2022-09-24T01:46:55.384Z,98.47
2022-09-24T01:49:44.290Z,98.65
2022-09-24T01:55:26.952Z,100.00
2022-09-24T02:01:08.076Z,100.00
2022-09-24T02:06:48.117Z,100.00
2022-09-24T02:09:40.609Z,100.00
2022-09-24T02:15:14.620Z,100.00
2022-09-24T02:20:51.872Z,100.00
2022-09-24T02:26:24.197Z,100.00
2022-09-24T02:29:13.056Z,100.00
2022-09-24T02:34:52.873Z,100.00
2022-09-24T02:37:48.213Z,100.00
2022-09-24T02:43:22.338Z,100.00
2022-09-24T02:46:10.688Z,100.00
2022-09-24T02:52:01.451Z,100.00
2022-09-24T02:54:50.129Z,100.00
2022-09-24T02:57:38.681Z,100.00
2022-09-24T03:00:27.059Z,100.00
2022-09-24T03:06:00.569Z,100.00
2022-09-24T03:11:36.634Z,100.00
2022-09-24T03:17:14.362Z,100.00
2022-09-24T03:20:04.426Z,100.00
2022-09-24T03:25:41.810Z,100.00
2022-09-24T03:28:30.288Z,100.00
2022-09-24T03:34:06.896Z,100.00
2022-09-24T03:36:55.421Z,100.00
2022-09-24T03:39:44.872Z,100.00
2022-09-24T03:42:34.517Z,100.00
2022-09-24T03:45:22.782Z,100.00
2022-09-24T03:48:11.033Z,100.00
2022-09-24T03:50:59.460Z,100.00
2022-09-24T03:56:35.978Z,100.00
2022-09-24T03:59:25.203Z,100.00
2022-09-24T04:05:12.315Z,100.00
2022-09-24T04:08:01.921Z,100.00
2022-09-24T04:13:38.733Z,100.00
2022-09-24T04:19:10.537Z,100.00
2022-09-24T04:21:58.993Z,100.00
2022-09-24T04:27:35.064Z,100.00
2022-09-24T04:33:24.254Z,100.00
2022-09-24T04:38:59.106Z,100.00
2022-09-24T04:44:34.500Z,100.00
2022-09-24T04:50:07.819Z,100.00
2022-09-24T04:55:49.295Z,100.00
2022-09-24T05:01:23.847Z,100.00
2022-09-24T05:06:54.466Z,100.00
2022-09-24T05:12:35.340Z,100.00
2022-09-24T05:18:02.991Z,100.00
2022-09-24T05:23:37.040Z,100.00
2022-09-24T05:26:43.650Z,100.00
2022-09-24T05:32:21.840Z,100.00
2022-09-24T05:37:58.451Z,100.00
2022-09-24T05:43:43.726Z,100.00
2022-09-24T05:46:32.953Z,100.00
2022-09-24T05:52:05.725Z,100.00
2022-09-24T05:57:48.064Z,100.00
2022-09-24T06:03:28.183Z,100.00
2022-09-24T06:09:10.152Z,100.00
2022-09-24T06:14:45.661Z,100.00
2022-09-24T06:20:43.096Z,100.00
2022-09-24T06:23:31.520Z,100.00
2022-09-24T06:29:07.268Z,100.00
2022-09-24T06:34:42.552Z,100.00
2022-09-24T06:37:30.945Z,100.00
2022-09-24T06:40:19.243Z,100.00
2022-09-24T06:43:08.354Z,100.00
2022-09-24T06:45:58.104Z,100.00
2022-09-24T06:51:33.338Z,100.00
2022-09-24T06:57:09.902Z,100.00
2022-09-24T07:08:33.408Z,100.00
2022-09-24T07:14:23.720Z,100.00
2022-09-24T07:20:14.544Z,100.00
2022-09-24T07:23:02.568Z,100.00
2022-09-24T07:25:51.745Z,100.00
2022-09-24T07:28:40.947Z,100.00
2022-09-24T07:34:14.803Z,100.00
2022-09-24T07:39:54.831Z,100.00
2022-09-24T07:42:49.644Z,100.00
2022-09-24T07:48:28.883Z,100.00
2022-09-24T07:51:22.833Z,100.00
2022-09-24T07:56:56.810Z,100.00
2022-09-24T07:59:45.463Z,100.00
2022-09-24T08:02:34.020Z,100.00
2022-09-24T08:05:23.285Z,100.00
2022-09-24T08:10:55.246Z,100.00
2022-09-24T08:13:43.673Z,100.00
2022-09-24T08:16:31.925Z,100.00
2022-09-24T08:19:19.989Z,100.00
2022-09-24T08:22:12.016Z,100.00
2022-09-24T08:27:50.249Z,100.00
2022-09-24T08:33:27.118Z,100.00
2022-09-24T08:36:15.331Z,100.00
2022-09-24T08:42:00.787Z,100.00
2022-09-24T08:47:45.554Z,100.00
2022-09-24T08:50:35.312Z,100.00
2022-09-24T08:56:16.250Z,100.00
2022-09-24T09:04:54.250Z,100.00
2022-09-24T09:10:36.677Z,96.93
2022-09-24T09:16:18.886Z,95.68
2022-09-24T09:21:59.161Z,95.95
2022-09-24T09:24:49.843Z,97.92
2022-09-24T09:27:38.997Z,98.53
2022-09-24T09:30:28.857Z,99.65
2022-09-24T09:33:24.678Z,98.33
2022-09-24T09:41:54.886Z,100.00
2022-09-24T09:47:38.235Z,100.00
2022-09-24T09:53:24.298Z,100.00
2022-09-24T09:59:08.484Z,100.00
2022-09-24T10:04:45.777Z,100.00
2022-09-24T10:10:24.148Z,100.00
2022-09-24T10:16:00.827Z,100.00
2022-09-24T10:21:37.744Z,98.87
2022-09-24T10:27:24.450Z,99.18
2022-09-24T10:33:04.538Z,99.03
2022-09-24T10:38:38.783Z,99.89
2022-09-24T10:44:16.099Z,100.00
2022-09-24T10:50:15.943Z,99.76
2022-09-24T10:55:59.486Z,99.47
2022-09-24T11:01:52.855Z,97.87
2022-09-24T11:11:16.551Z,98.36
2022-09-24T11:20:33.961Z,99.64
2022-09-24T11:26:32.485Z,97.44
2022-09-24T11:29:37.611Z,96.04
2022-09-24T11:35:24.076Z,94.44
2022-09-24T11:41:21.273Z,96.21
2022-09-24T11:47:24.734Z,94.66
2022-09-24T11:55:59.620Z,93.40
2022-09-24T11:58:51.427Z,94.65
2022-09-24T12:04:30.920Z,91.25
2022-09-24T12:07:23.826Z,90.60
2022-09-24T12:13:18.039Z,87.09
2022-09-24T12:18:57.895Z,86.82
2022-09-24T12:24:38.475Z,86.38
2022-09-24T12:30:42.436Z,85.71
2022-09-24T12:36:38.800Z,86.97
2022-09-24T12:39:29.619Z,87.13
2022-09-24T12:42:20.921Z,86.04
2022-09-24T12:47:59.765Z,84.41
2022-09-24T12:53:43.848Z,84.05
2022-09-24T12:59:29.511Z,83.03
2022-09-24T13:02:22.022Z,82.88
2022-09-24T13:05:21.307Z,81.87
2022-09-24T13:08:27.145Z,85.04
2022-09-24T13:17:08.425Z,84.91
2022-09-24T13:25:25.026Z,81.05
2022-09-24T13:31:15.806Z,82.47
2022-09-24T13:36:58.170Z,79.17
2022-09-24T13:39:50.300Z,79.78
2022-09-24T13:48:14.271Z,85.40
2022-09-24T13:53:48.162Z,84.13
2022-09-24T14:01:57.082Z,84.65
2022-09-24T14:07:32.552Z,84.58
2022-09-24T14:13:19.167Z,84.17
2022-09-24T14:19:06.385Z,82.26
2022-09-24T14:24:50.135Z,83.48
2022-09-24T14:33:16.790Z,84.26
2022-09-24T14:36:05.750Z,85.40
2022-09-24T14:38:57.291Z,85.30
2022-09-24T14:44:37.662Z,85.12
2022-09-24T14:50:29.416Z,86.94
2022-09-24T14:53:23.598Z,87.97
2022-09-24T15:02:17.899Z,87.28
2022-09-24T15:07:47.869Z,84.04
2022-09-24T15:10:36.447Z,81.88
2022-09-24T15:13:27.075Z,79.60
2022-09-24T15:16:22.087Z,78.87
2022-09-24T15:22:02.141Z,79.97
2022-09-24T15:27:39.995Z,79.19
2022-09-24T15:33:12.922Z,82.48
2022-09-24T15:36:01.670Z,82.98
2022-09-24T15:41:32.842Z,84.32
2022-09-24T15:44:26.240Z,83.44
2022-09-24T15:47:14.352Z,83.12
2022-09-24T15:52:53.176Z,85.36
2022-09-24T15:55:41.814Z,86.67
2022-09-24T15:58:30.317Z,86.03
2022-09-24T16:01:19.705Z,86.98
2022-09-24T16:04:08.788Z,87.46
2022-09-24T16:09:57.494Z,89.99
2022-09-24T16:15:33.666Z,91.45
2022-09-24T16:21:12.420Z,92.99
2022-09-24T16:24:01.214Z,93.04
2022-09-24T16:29:38.855Z,92.52
2022-09-24T16:32:27.196Z,92.52
2022-09-24T16:35:15.333Z,92.28
2022-09-24T16:38:04.076Z,92.85
2022-09-24T16:41:00.163Z,93.92
2022-09-24T16:46:36.633Z,94.77
2022-09-24T16:52:11.948Z,96.32
2022-09-24T16:57:52.479Z,98.21
2022-09-24T17:00:45.724Z,98.78
2022-09-24T17:03:35.993Z,99.20
2022-09-24T17:06:26.140Z,100.00
2022-09-24T17:09:32.786Z,100.00
2022-09-24T17:15:10.710Z,100.00
2022-09-24T17:20:50.428Z,99.46
2022-09-24T17:23:38.518Z,96.71
2022-09-24T17:26:27.704Z,94.86
2022-09-24T17:29:26.476Z,95.51
2022-09-24T17:32:17.357Z,96.11
2022-09-24T17:38:09.393Z,100.00
2022-09-24T17:43:47.258Z,100.00
2022-09-24T17:46:38.731Z,100.00
2022-09-24T17:49:27.062Z,100.00
2022-09-24T17:52:16.559Z,100.00
2022-09-24T17:57:58.238Z,100.00
2022-09-24T18:00:46.825Z,100.00
2022-09-24T18:03:36.566Z,100.00
2022-09-24T18:09:13.827Z,100.00
2022-09-24T18:15:07.404Z,100.00
2022-09-24T18:20:51.691Z,100.00
2022-09-24T18:23:40.348Z,100.00
2022-09-24T18:26:32.282Z,100.00
2022-09-24T18:29:26.458Z,100.00
2022-09-24T18:32:19.877Z,100.00
2022-09-24T18:35:13.610Z,100.00
2022-09-24T18:40:57.340Z,100.00
2022-09-24T18:46:33.757Z,100.00
2022-09-24T18:49:24.245Z,100.00
2022-09-24T18:52:13.544Z,100.00
2022-09-24T18:57:52.917Z,100.00
2022-09-24T19:00:51.211Z,100.00
2022-09-24T19:03:40.445Z,100.00
2022-09-24T19:06:28.776Z,100.00
2022-09-24T19:12:25.108Z,100.00
2022-09-24T19:18:00.238Z,100.00
2022-09-24T19:20:50.919Z,100.00
2022-09-24T19:23:56.179Z,100.00
2022-09-24T19:29:38.031Z,100.00
2022-09-24T19:35:18.281Z,100.00
2022-09-24T19:41:03.947Z,100.00
2022-09-24T19:46:40.873Z,100.00
2022-09-24T19:49:30.723Z,100.00
2022-09-24T19:52:20.614Z,100.00
2022-09-24T19:57:59.122Z,100.00
2022-09-24T20:04:06.315Z,100.00
2022-09-24T20:09:44.416Z,100.00
2022-09-24T20:12:40.827Z,100.00
2022-09-24T20:18:21.797Z,100.00
2022-09-24T20:24:06.317Z,100.00
2022-09-24T20:30:00.075Z,100.00
2022-09-24T20:35:42.663Z,100.00
2022-09-24T20:38:37.850Z,100.00
2022-09-24T20:50:37.953Z,100.00
2022-09-24T20:53:31.497Z,100.00
2022-09-24T20:56:20.807Z,100.00
2022-09-24T21:02:16.680Z,100.00
2022-09-24T21:08:05.752Z,100.00
2022-09-24T21:13:54.618Z,100.00
2022-09-24T21:19:41.787Z,100.00
2022-09-24T21:22:35.569Z,100.00
2022-09-24T21:25:53.514Z,100.00
2022-09-24T21:31:28.663Z,100.00
2022-09-24T21:34:36.084Z,100.00
2022-09-24T21:37:25.491Z,100.00
2022-09-24T21:40:14.712Z,100.00
2022-09-24T21:43:04.520Z,100.00
2022-09-24T21:46:03.931Z,100.00
2022-09-24T21:48:52.274Z,100.00
2022-09-24T21:54:26.928Z,100.00
2022-09-24T21:57:27.248Z,100.00
2022-09-24T22:00:24.279Z,100.00
2022-09-24T22:08:51.276Z,100.00
2022-09-24T22:14:26.924Z,100.00
2022-09-24T22:20:02.962Z,100.00
2022-09-24T22:25:40.498Z,100.00
2022-09-24T22:31:16.174Z,100.00
2022-09-24T22:36:52.493Z,100.00
2022-09-24T22:39:41.774Z,100.00
2022-09-24T22:45:14.954Z,100.00
2022-09-24T22:50:51.210Z,100.00
2022-09-24T22:53:40.446Z,100.00
2022-09-24T22:59:11.170Z,100.00
2022-09-24T23:01:59.652Z,100.00
2022-09-24T23:07:35.640Z,100.00
2022-09-24T23:13:05.428Z,100.00
2022-09-24T23:18:32.256Z,100.00
2022-09-24T23:21:22.303Z,100.00
2022-09-24T23:26:55.388Z,100.00
2022-09-24T23:32:31.464Z,100.00
2022-09-24T23:35:21.178Z,100.00
2022-09-24T23:40:57.209Z,100.00
2022-09-24T23:43:46.341Z,100.00
2022-09-24T23:49:21.107Z,100.00
2022-09-24T23:52:10.849Z,100.00
2022-09-24T23:54:58.995Z,100.00
